createdAt,value
2019-03-02T00:02:48.539Z,11.17
2019-03-02T00:06:52.816Z,7.73
2019-03-02T00:10:57.069Z,6.43
2019-03-02T00:15:01.468Z,11.33
2019-03-02T00:19:06.685Z,12.30
2019-03-02T00:23:11.778Z,10.73
2019-03-02T00:27:17.776Z,10.30
2019-03-02T00:31:22.123Z,6.87
2019-03-02T00:35:26.538Z,13.30
2019-03-02T00:39:30.953Z,10.43
2019-03-02T00:43:35.320Z,12.63
2019-03-02T00:47:39.624Z,8.33
2019-03-02T00:51:46.248Z,8.30
2019-03-02T00:55:49.797Z,11.03
2019-03-02T00:59:54.059Z,6.83
2019-03-02T01:03:58.375Z,8.57
2019-03-02T01:08:02.731Z,12.53
2019-03-02T01:12:09.128Z,8.33
2019-03-02T01:16:13.029Z,11.57
2019-03-02T01:20:17.278Z,9.97
2019-03-02T01:24:21.578Z,10.17
2019-03-02T01:28:25.880Z,9.00
2019-03-02T01:32:31.133Z,12.93
2019-03-02T01:36:35.619Z,10.47
2019-03-02T01:40:40.790Z,10.83
2019-03-02T01:44:48.772Z,9.23
2019-03-02T01:48:51.935Z,7.93
2019-03-02T01:52:56.179Z,9.80
2019-03-02T01:57:00.478Z,10.63
2019-03-02T02:01:05.152Z,9.33
2019-03-02T02:05:09.558Z,12.80
2019-03-02T02:09:13.849Z,12.13
2019-03-02T02:13:18.203Z,9.80
2019-03-02T02:17:22.580Z,13.90
2019-03-02T02:21:27.430Z,8.83
2019-03-02T02:25:32.622Z,10.53
2019-03-02T02:29:40.636Z,7.63
2019-03-02T02:33:44.626Z,9.00
2019-03-02T02:37:49.061Z,10.03
2019-03-02T02:41:53.357Z,5.17
2019-03-02T02:45:57.686Z,4.73
2019-03-02T02:50:02.069Z,4.90
2019-03-02T02:54:06.513Z,7.30
2019-03-02T02:58:12.512Z,5.60
2019-03-02T03:02:16.923Z,6.40
2019-03-02T03:06:21.274Z,6.57
2019-03-02T03:10:44.625Z,5.80
2019-03-02T03:14:49.024Z,4.30
2019-03-02T03:18:53.725Z,5.63
2019-03-02T03:22:58.223Z,5.87
2019-03-02T03:27:02.525Z,3.80
2019-03-02T03:31:06.820Z,3.77
2019-03-02T03:35:16.866Z,6.37
2019-03-02T03:39:17.130Z,5.63
2019-03-02T03:43:21.423Z,5.23
2019-03-02T03:47:25.792Z,3.97
2019-03-02T03:51:30.515Z,6.27
2019-03-02T03:55:36.464Z,5.87
2019-03-02T03:59:40.745Z,9.07
2019-03-02T04:03:46.959Z,4.87
2019-03-02T04:07:51.593Z,3.90
2019-03-02T04:11:56.044Z,5.20
2019-03-02T04:16:00.363Z,6.43
2019-03-02T04:20:08.096Z,6.67
2019-03-02T04:24:11.900Z,12.07
2019-03-02T04:28:16.242Z,9.50
2019-03-02T04:32:27.340Z,5.20
2019-03-02T04:36:26.577Z,6.70
2019-03-02T04:40:30.872Z,5.97
2019-03-02T04:44:35.225Z,8.00
2019-03-02T04:48:40.076Z,6.77
2019-03-02T04:52:46.602Z,7.33
2019-03-02T04:56:50.367Z,5.87
2019-03-02T05:00:54.817Z,6.33
2019-03-02T05:04:59.144Z,7.23
2019-03-02T05:09:04.951Z,8.17
2019-03-02T05:13:09.202Z,7.60
2019-03-02T05:17:13.484Z,7.30
2019-03-02T05:21:17.942Z,7.60
2019-03-02T05:25:22.311Z,5.47
2019-03-02T05:29:26.592Z,7.53
2019-03-02T05:33:30.963Z,6.73
2019-03-02T05:37:39.337Z,5.73
2019-03-02T05:41:41.267Z,7.90
2019-03-02T05:45:45.538Z,7.03
2019-03-02T05:49:50.773Z,7.37
2019-03-02T05:53:55.782Z,6.00
2019-03-02T05:58:00.126Z,6.50
2019-03-02T06:02:04.475Z,6.57
2019-03-02T06:06:08.758Z,6.83
2019-03-02T06:10:13.807Z,6.93
2019-03-02T06:14:18.188Z,9.33
2019-03-02T06:18:22.774Z,7.40
2019-03-02T06:22:27.159Z,5.97
2019-03-02T06:26:31.702Z,6.40
2019-03-02T06:30:40.638Z,8.77
2019-03-02T06:34:43.780Z,8.87
2019-03-02T06:38:48.332Z,8.30
2019-03-02T06:42:54.058Z,6.97
2019-03-02T06:46:59.185Z,9.10
2019-03-02T06:51:03.797Z,11.63
2019-03-02T06:55:09.436Z,8.07
2019-03-02T06:59:13.868Z,7.97
2019-03-02T07:03:18.310Z,8.60
2019-03-02T07:07:22.837Z,10.33
2019-03-02T07:11:29.904Z,11.97
2019-03-02T07:15:33.373Z,11.03
2019-03-02T07:19:48.619Z,9.30
2019-03-02T07:23:53.450Z,17.03
2019-03-02T07:27:57.891Z,11.97
2019-03-02T07:32:02.352Z,14.93
2019-03-02T07:36:06.829Z,14.07
2019-03-02T07:40:11.359Z,18.30
2019-03-02T07:44:18.833Z,16.40
2019-03-02T07:48:21.883Z,18.13
2019-03-02T07:52:26.307Z,20.63
2019-03-02T07:56:32.497Z,23.80
2019-03-02T08:00:37.863Z,23.60
2019-03-02T08:04:42.744Z,26.83
2019-03-02T08:08:49.243Z,25.07
2019-03-02T08:12:53.181Z,24.80
2019-03-02T08:16:57.550Z,23.63
2019-03-02T08:21:01.900Z,24.83
2019-03-02T08:25:07.432Z,27.23
2019-03-02T08:29:11.890Z,24.00
2019-03-02T08:33:16.292Z,25.87
2019-03-02T08:37:20.660Z,24.27
2019-03-02T08:41:25.183Z,25.80
2019-03-02T08:45:30.975Z,24.83
2019-03-02T08:49:38.464Z,22.83
2019-03-02T08:53:41.751Z,25.90
2019-03-02T08:57:46.263Z,25.53
2019-03-02T09:01:51.297Z,23.77
2019-03-02T09:05:56.807Z,36.97
2019-03-02T09:10:01.184Z,24.67
2019-03-02T09:14:05.492Z,22.43
2019-03-02T09:18:12.774Z,22.13
2019-03-02T09:22:17.118Z,23.90
2019-03-02T09:26:21.592Z,23.07
2019-03-02T09:30:26.039Z,22.27
2019-03-02T09:34:30.547Z,17.80
2019-03-02T09:38:35.017Z,17.63
2019-03-02T09:42:41.214Z,20.50
2019-03-02T09:46:45.477Z,16.03
2019-03-02T09:50:49.920Z,14.87
2019-03-02T09:54:54.319Z,16.17
2019-03-02T09:59:01.651Z,13.60
2019-03-02T10:03:04.862Z,10.73
2019-03-02T10:07:28.425Z,10.90
2019-03-02T10:11:32.819Z,10.60
2019-03-02T10:15:37.290Z,9.00
2019-03-02T10:19:41.698Z,9.57
2019-03-02T10:23:46.103Z,8.97
2019-03-02T10:27:53.937Z,8.37
2019-03-02T10:31:56.398Z,9.17
2019-03-02T10:36:00.854Z,11.43
2019-03-02T10:40:08.850Z,8.70
2019-03-02T10:44:12.662Z,12.30
2019-03-02T10:48:17.107Z,12.23
2019-03-02T10:52:21.578Z,13.70
2019-03-02T10:56:26.120Z,18.07
2019-03-02T11:00:31.437Z,17.27
2019-03-02T11:04:49.536Z,15.43
2019-03-02T11:09:22.164Z,19.93
2019-03-02T11:13:46.776Z,14.60
2019-03-02T11:18:19.403Z,17.63
2019-03-02T11:22:38.729Z,21.83
2019-03-02T11:26:51.089Z,23.90
2019-03-02T11:31:26.388Z,23.87
2019-03-02T11:35:53.117Z,22.23
2019-03-02T11:40:16.460Z,21.50
2019-03-02T11:44:38.885Z,19.77
2019-03-02T11:48:56.726Z,18.77
2019-03-02T11:53:17.081Z,18.57
2019-03-02T11:57:50.275Z,18.60
2019-03-02T12:02:19.983Z,25.60
2019-03-02T12:06:47.527Z,17.17
2019-03-02T12:11:10.423Z,19.50
2019-03-02T12:15:31.114Z,23.17
2019-03-02T12:19:50.626Z,21.43
2019-03-02T12:24:15.181Z,16.33
2019-03-02T12:28:42.040Z,21.03
2019-03-02T12:33:02.730Z,19.77
2019-03-02T12:37:41.304Z,18.80
2019-03-02T12:42:05.134Z,24.60
2019-03-02T12:46:42.050Z,23.53
2019-03-02T12:51:17.775Z,20.90
2019-03-02T12:55:39.798Z,23.07
2019-03-02T13:00:06.154Z,23.43
2019-03-02T13:04:28.605Z,28.50
2019-03-02T13:08:55.047Z,28.17
2019-03-02T13:13:16.901Z,33.17
2019-03-02T13:17:44.499Z,34.43
2019-03-02T13:22:08.007Z,37.90
2019-03-02T13:26:18.750Z,37.30
2019-03-02T13:30:51.225Z,40.50
2019-03-02T13:35:19.915Z,37.17
2019-03-02T13:39:35.804Z,38.03
2019-03-02T13:43:45.927Z,38.43
2019-03-02T13:48:08.082Z,40.40
2019-03-02T13:52:22.177Z,36.40
2019-03-02T13:57:01.136Z,36.97
2019-03-02T14:01:21.136Z,35.90
2019-03-02T14:05:55.021Z,35.60
2019-03-02T14:10:23.949Z,35.93
2019-03-02T14:14:46.295Z,36.03
2019-03-02T14:19:09.654Z,34.63
2019-03-02T14:23:35.909Z,35.87
2019-03-02T14:27:54.031Z,38.57
2019-03-02T14:32:24.136Z,35.83
2019-03-02T14:36:36.456Z,34.30
2019-03-02T14:41:16.004Z,35.80
2019-03-02T14:45:48.407Z,34.00
2019-03-02T14:50:01.987Z,32.47
2019-03-02T14:54:17.281Z,42.90
2019-03-02T14:58:40.209Z,32.23
2019-03-02T15:03:12.924Z,33.20
2019-03-02T15:07:31.628Z,33.95
2019-03-02T15:11:53.657Z,35.73
2019-03-02T15:16:06.710Z,29.47
2019-03-02T15:20:28.859Z,33.90
2019-03-02T15:24:53.019Z,34.00
2019-03-02T15:29:14.944Z,37.53
2019-03-02T15:33:24.870Z,31.10
2019-03-02T15:37:38.908Z,30.07
2019-03-02T15:42:01.188Z,32.30
2019-03-02T15:46:27.356Z,30.47
2019-03-02T15:50:51.289Z,34.30
2019-03-02T15:55:13.625Z,32.60
2019-03-02T15:59:37.296Z,29.20
2019-03-02T16:04:00.926Z,30.23
2019-03-02T16:12:31.126Z,29.93
2019-03-02T16:16:59.859Z,28.00
2019-03-02T16:21:12.181Z,27.77
2019-03-02T16:25:26.535Z,28.20
2019-03-02T16:29:42.274Z,30.00
2019-03-02T16:34:04.319Z,28.73
2019-03-02T16:38:31.027Z,25.97
2019-03-02T16:42:50.968Z,28.17
2019-03-02T16:47:16.128Z,27.80
2019-03-02T16:51:41.920Z,30.50
2019-03-02T16:56:11.376Z,25.40
2019-03-02T17:00:28.778Z,27.00
2019-03-02T17:04:40.211Z,28.47
2019-03-02T17:09:08.027Z,27.33
2019-03-02T17:13:33.487Z,34.63
2019-03-02T17:17:51.291Z,29.50
2019-03-02T17:22:14.679Z,26.80
2019-03-02T17:26:42.089Z,28.67
2019-03-02T17:30:52.799Z,27.50
2019-03-02T17:35:25.175Z,30.87
2019-03-02T17:39:54.983Z,27.23
2019-03-02T17:44:18.741Z,27.63
2019-03-02T17:48:31.130Z,29.53
2019-03-02T17:52:46.835Z,27.03
2019-03-02T17:57:22.040Z,40.63
2019-03-02T18:01:42.879Z,31.10
2019-03-02T18:06:02.600Z,31.73
2019-03-02T18:10:17.789Z,29.13
2019-03-02T18:14:39.920Z,31.47
2019-03-02T18:18:44.387Z,32.53
2019-03-02T18:22:48.729Z,30.10
2019-03-02T18:26:53.063Z,26.73
2019-03-02T18:30:57.591Z,28.23
2019-03-02T18:35:02.859Z,28.80
2019-03-02T18:39:09.184Z,31.10
2019-03-02T18:43:15.306Z,28.80
2019-03-02T18:47:19.723Z,27.90
2019-03-02T18:51:46.232Z,28.07
2019-03-02T18:55:50.665Z,27.27
2019-03-02T18:59:54.983Z,26.43
2019-03-02T19:04:00.147Z,28.23
2019-03-02T19:08:04.750Z,28.30
2019-03-02T19:12:09.087Z,26.57
2019-03-02T19:16:13.424Z,27.40
2019-03-02T19:20:17.819Z,33.87
2019-03-02T19:24:22.221Z,27.50
2019-03-02T19:28:26.668Z,26.97
2019-03-02T19:32:31.107Z,36.87
2019-03-02T19:36:35.508Z,32.63
2019-03-02T19:40:39.875Z,32.53
2019-03-02T19:44:44.332Z,33.00
2019-03-02T19:48:49.092Z,33.03
2019-03-02T19:52:53.367Z,33.30
2019-03-02T19:56:57.738Z,34.70
2019-03-02T20:01:02.060Z,34.23
2019-03-02T20:05:06.646Z,32.00
2019-03-02T20:09:10.954Z,34.27
2019-03-02T20:13:15.360Z,31.03
2019-03-02T20:17:19.727Z,31.83
2019-03-02T20:21:24.166Z,30.13
2019-03-02T20:25:28.590Z,29.23
2019-03-02T20:29:32.887Z,26.30
2019-03-02T20:33:37.228Z,26.77
2019-03-02T20:37:41.559Z,30.17
2019-03-02T20:41:45.989Z,27.47
2019-03-02T20:45:50.312Z,28.57
2019-03-02T20:49:54.743Z,27.77
2019-03-02T20:53:59.012Z,25.63
2019-03-02T20:58:03.474Z,27.13
2019-03-02T21:02:07.871Z,30.33
2019-03-02T21:06:12.280Z,26.47
2019-03-02T21:10:17.862Z,31.67
2019-03-02T21:14:22.219Z,25.23
2019-03-02T21:18:26.622Z,25.17
2019-03-02T21:22:31.029Z,24.03
2019-03-02T21:26:35.518Z,23.73
2019-03-02T21:30:39.870Z,24.27
2019-03-02T21:34:44.247Z,24.37
2019-03-02T21:38:48.742Z,23.80
2019-03-02T21:42:53.121Z,19.03
2019-03-02T21:46:57.530Z,19.00
2019-03-02T21:51:02.036Z,19.23
2019-03-02T21:55:06.480Z,19.10
2019-03-02T21:59:10.866Z,18.93
2019-03-02T22:03:15.209Z,21.23
2019-03-02T22:07:19.552Z,18.63
2019-03-02T22:11:23.896Z,22.33
2019-03-02T22:15:28.328Z,20.60
2019-03-02T22:19:32.828Z,22.23
2019-03-02T22:23:37.113Z,24.10
2019-03-02T22:27:41.483Z,25.13
2019-03-02T22:31:45.906Z,26.60
2019-03-02T22:35:50.334Z,27.10
2019-03-02T22:39:55.255Z,30.73
2019-03-02T22:43:59.708Z,27.90
2019-03-02T22:48:03.981Z,27.83
2019-03-02T22:52:08.313Z,26.50
2019-03-02T22:56:12.639Z,24.77
2019-03-02T23:01:00.883Z,24.33
2019-03-02T23:05:05.183Z,23.83
2019-03-02T23:09:11.483Z,24.27
2019-03-02T23:13:16.924Z,21.83
2019-03-02T23:17:21.303Z,23.03
2019-03-02T23:21:25.757Z,21.37
2019-03-02T23:25:30.149Z,18.83
2019-03-02T23:29:34.658Z,18.70
2019-03-02T23:33:39.139Z,18.63
2019-03-02T23:37:43.603Z,19.40
2019-03-02T23:41:47.995Z,21.50
2019-03-02T23:45:52.356Z,19.77
2019-03-02T23:49:56.679Z,26.37
2019-03-02T23:54:01.137Z,24.07
2019-03-02T23:58:05.575Z,27.03
